Lost Springs, Wyoming
Current Conditions -  °F | °C
As of 8:53 PM on Thursday 20 Nov 2014 (Local Time) from KDGW Reporting Station
Clear Clear  
Wind Chill: 18°   Ceiling: Unl
Heat Index: 24°   Visibility: 10mi
Dew Point: 19°   Wind: 5mph
Humidity: 81%   Direction: 170°S
Pressure: 29.93"   Gusts: NA
Location:  42.77°N, 104.93°W
Report Text: KDGW 210353Z AUTO 17004KT 10SM CLR M04/M07 A2993 RMK AO2 SLP181 T10441072
Loading
Personal Weather Stations






























Interactive Weather Map New forecast layout! Learn more

10-Day Weather Forecast

Advertisements
Track Severe Weather on mobile